createdAt,value
2022-09-06T00:00:29.790Z,100984.16
2022-09-06T00:01:32.577Z,100982.42
2022-09-06T00:02:35.028Z,100971.16
2022-09-06T00:03:36.984Z,100987.50
2022-09-06T00:04:38.952Z,100988.79
2022-09-06T00:05:40.756Z,100981.58
2022-09-06T00:06:42.682Z,100986.45
2022-09-06T00:07:44.710Z,100995.85
2022-09-06T00:08:47.233Z,100989.09
2022-09-06T00:09:49.166Z,100987.26
2022-09-06T00:11:01.054Z,100986.85
2022-09-06T00:12:02.215Z,100994.72
2022-09-06T00:13:05.151Z,100991.12
2022-09-06T00:14:07.029Z,100988.48
2022-09-06T00:15:09.642Z,100986.85
2022-09-06T00:16:13.386Z,100989.05
2022-09-06T00:17:15.700Z,100992.28
2022-09-06T00:18:17.581Z,100987.05
2022-09-06T00:19:19.457Z,100992.93
2022-09-06T00:20:21.316Z,100987.36
2022-09-06T00:21:24.497Z,100984.67
2022-09-06T00:22:26.428Z,100992.33
2022-09-06T00:23:28.490Z,100990.50
2022-09-06T00:24:30.425Z,100984.77
2022-09-06T00:25:32.888Z,100989.95
2022-09-06T00:26:35.255Z,100986.41
2022-09-06T00:27:37.120Z,100986.75
2022-09-06T00:28:39.533Z,100985.05
2022-09-06T00:29:41.454Z,100986.75
2022-09-06T00:30:43.295Z,100981.27
2022-09-06T00:31:45.174Z,100985.45
2022-09-06T00:32:47.159Z,100980.04
2022-09-06T00:33:49.601Z,100983.61
2022-09-06T00:34:51.562Z,100990.29
2022-09-06T00:35:55.270Z,100988.79
2022-09-06T00:36:57.341Z,100983.41
2022-09-06T00:37:59.906Z,100988.59
2022-09-06T00:39:01.979Z,100982.81
2022-09-06T00:40:04.445Z,100985.27
2022-09-06T00:41:07.950Z,100985.55
2022-09-06T00:42:10.608Z,100994.22
2022-09-06T00:43:12.497Z,100989.89
2022-09-06T00:44:14.371Z,100991.69
2022-09-06T00:45:16.307Z,100988.55
2022-09-06T00:46:19.949Z,100989.82
2022-09-06T00:47:21.884Z,100997.98
2022-09-06T00:48:24.369Z,100988.09
2022-09-06T00:49:28.438Z,100990.69
2022-09-06T00:50:30.688Z,100989.02
2022-09-06T00:51:35.050Z,100992.23
2022-09-06T00:52:37.642Z,100986.86
2022-09-06T00:53:39.466Z,100993.84
2022-09-06T00:54:42.061Z,100992.84
2022-09-06T00:55:44.412Z,100993.45
2022-09-06T00:56:46.573Z,100993.16
2022-09-06T00:57:49.239Z,100990.02
2022-09-06T00:58:51.370Z,100975.84
2022-09-06T00:59:54.185Z,100993.36
2022-09-06T01:00:56.133Z,100993.27
2022-09-06T01:01:58.190Z,100991.13
2022-09-06T01:03:00.194Z,100992.87
2022-09-06T01:04:02.910Z,100986.80
2022-09-06T01:05:05.583Z,100991.98
2022-09-06T01:06:18.610Z,100994.67
2022-09-06T01:07:39.131Z,100988.94
2022-09-06T01:08:59.882Z,100990.63
2022-09-06T01:10:03.641Z,100992.51
2022-09-06T01:11:25.769Z,100996.29
2022-09-06T01:12:47.890Z,100987.42
2022-09-06T01:13:51.586Z,100990.63
2022-09-06T01:15:12.215Z,100996.29
2022-09-06T01:16:19.205Z,100993.45
2022-09-06T01:17:29.011Z,100991.81
2022-09-06T01:18:39.327Z,100980.51
2022-09-06T01:20:00.065Z,100991.81
2022-09-06T01:21:19.036Z,100992.09
2022-09-06T01:22:25.983Z,100993.87
2022-09-06T01:23:32.704Z,101002.19
2022-09-06T01:24:42.364Z,100996.91
2022-09-06T01:25:49.482Z,100998.73
2022-09-06T01:27:05.847Z,100991.09
2022-09-06T01:28:26.266Z,100997.98
2022-09-06T01:29:47.007Z,100988.98
2022-09-06T01:30:50.755Z,100986.44
2022-09-06T01:31:54.561Z,100989.35
2022-09-06T01:32:58.266Z,100994.62
2022-09-06T01:34:04.994Z,100993.51
2022-09-06T01:35:14.902Z,100997.17
2022-09-06T01:36:18.852Z,101000.80
2022-09-06T01:37:22.301Z,100996.23
2022-09-06T01:38:24.696Z,100994.27
2022-09-06T01:39:28.451Z,100998.34
2022-09-06T01:40:31.329Z,100999.32
2022-09-06T01:41:33.675Z,100998.30
2022-09-06T01:42:36.625Z,101000.35
2022-09-06T01:43:40.278Z,100998.56
2022-09-06T01:44:44.039Z,101003.25
2022-09-06T01:45:51.008Z,101005.63
2022-09-06T01:46:54.873Z,101004.82
2022-09-06T01:47:58.598Z,101007.55
2022-09-06T01:49:17.772Z,101005.63
2022-09-06T01:50:33.892Z,101010.40
2022-09-06T01:51:54.854Z,101006.91
2022-09-06T01:53:07.500Z,101009.55
2022-09-06T01:54:20.359Z,101004.27
2022-09-06T01:55:24.348Z,101004.27
2022-09-06T01:56:47.117Z,101004.01
2022-09-06T01:58:05.927Z,101007.63
2022-09-06T01:59:22.032Z,101002.23
2022-09-06T02:00:24.238Z,101005.42
2022-09-06T02:01:31.046Z,101008.10
2022-09-06T02:02:41.396Z,101006.70
2022-09-06T02:05:01.955Z,101004.27
2022-09-06T02:06:06.028Z,101004.58
2022-09-06T02:07:15.530Z,101007.98
2022-09-06T02:08:19.312Z,101002.54
2022-09-06T02:09:23.296Z,101007.85
2022-09-06T02:10:27.111Z,101010.53
2022-09-06T02:11:30.898Z,101007.89
2022-09-06T02:12:34.928Z,101014.31
2022-09-06T02:13:41.769Z,101012.31
2022-09-06T02:14:47.426Z,101011.63
2022-09-06T02:15:51.242Z,101010.83
2022-09-06T02:16:54.357Z,101017.25
2022-09-06T02:17:58.205Z,101018.81
2022-09-06T02:19:02.015Z,101022.34
2022-09-06T02:20:08.639Z,101016.14
2022-09-06T02:21:12.609Z,101014.99
2022-09-06T02:22:16.361Z,101020.48
2022-09-06T02:23:20.016Z,101020.72
2022-09-06T02:24:23.763Z,101013.67
2022-09-06T02:25:27.723Z,101018.81
2022-09-06T02:26:31.413Z,101016.14
2022-09-06T02:27:33.642Z,101019.03
2022-09-06T02:28:35.687Z,101015.63
2022-09-06T02:29:38.088Z,101018.13
2022-09-06T02:30:42.013Z,101019.16
2022-09-06T02:31:45.782Z,101009.59
2022-09-06T02:32:49.532Z,101016.48
2022-09-06T02:33:51.496Z,101012.52
2022-09-06T02:34:54.537Z,101008.78
2022-09-06T02:35:58.288Z,101015.88
2022-09-06T02:37:00.982Z,101010.16
2022-09-06T02:38:03.127Z,101017.61
2022-09-06T02:39:05.065Z,101011.54
2022-09-06T02:40:07.861Z,101025.92
2022-09-06T02:41:10.420Z,101020.70
2022-09-06T02:42:13.861Z,101019.80
2022-09-06T02:43:15.783Z,101023.29
2022-09-06T02:44:17.683Z,101017.98
2022-09-06T02:45:19.619Z,101026.98
2022-09-06T02:46:21.717Z,101030.53
2022-09-06T02:47:23.601Z,101024.45
2022-09-06T02:48:25.526Z,101023.95
2022-09-06T02:49:27.593Z,101032.36
2022-09-06T02:50:29.419Z,101023.77
2022-09-06T02:51:33.142Z,101022.22
2022-09-06T02:52:34.973Z,101031.08
2022-09-06T02:53:37.059Z,101025.73
2022-09-06T02:54:38.950Z,101021.17
2022-09-06T02:55:40.845Z,101031.74
2022-09-06T02:56:42.991Z,101023.95
2022-09-06T02:57:44.826Z,101022.95
2022-09-06T02:58:46.728Z,101013.23
2022-09-06T02:59:48.625Z,101019.34
2022-09-06T03:00:51.116Z,100989.97
2022-09-06T03:01:53.180Z,101022.06
2022-09-06T03:02:55.459Z,101012.92
2022-09-06T03:03:57.387Z,101023.53
2022-09-06T03:04:59.242Z,101019.31
2022-09-06T03:06:01.268Z,101018.50
2022-09-06T03:07:03.395Z,101024.53
2022-09-06T03:08:05.459Z,101025.43
2022-09-06T03:09:07.325Z,101015.87
2022-09-06T03:10:09.530Z,101023.80
2022-09-06T03:11:11.732Z,101028.10
2022-09-06T03:12:13.786Z,101028.18
2022-09-06T03:13:15.734Z,101025.59
2022-09-06T03:14:17.689Z,101025.81
2022-09-06T03:15:20.305Z,101030.92
2022-09-06T03:16:22.407Z,101028.48
2022-09-06T03:17:24.395Z,101033.72
2022-09-06T03:18:27.863Z,101035.61
2022-09-06T03:19:29.868Z,101040.95
2022-09-06T03:20:36.353Z,101039.34
2022-09-06T03:21:35.515Z,101029.97
2022-09-06T03:22:37.923Z,101029.97
2022-09-06T03:23:39.794Z,101031.72
2022-09-06T03:24:41.745Z,101036.05
2022-09-06T03:25:43.579Z,101036.75
2022-09-06T03:26:45.434Z,101035.72
2022-09-06T03:27:47.511Z,101035.80
2022-09-06T03:28:49.371Z,101040.05
2022-09-06T03:29:51.296Z,101038.05
2022-09-06T03:30:53.167Z,101039.20
2022-09-06T03:31:55.120Z,101041.02
2022-09-06T03:33:00.785Z,101045.31
2022-09-06T03:34:00.635Z,101041.94
2022-09-06T03:35:02.679Z,101041.87
2022-09-06T03:36:04.632Z,101047.17
2022-09-06T03:37:06.893Z,101047.98
2022-09-06T03:38:08.816Z,101041.80
2022-09-06T03:39:10.671Z,101047.72
2022-09-06T03:40:12.671Z,101042.50
2022-09-06T03:41:14.541Z,101051.25
2022-09-06T03:42:16.542Z,101052.17
2022-09-06T03:43:19.268Z,101049.39
2022-09-06T03:44:23.772Z,101050.28
2022-09-06T03:45:25.799Z,101051.06
2022-09-06T03:46:28.056Z,101044.79
2022-09-06T03:47:29.891Z,101046.45
2022-09-06T03:48:31.746Z,101047.31
2022-09-06T03:49:33.859Z,101049.09
2022-09-06T03:50:35.865Z,101050.28
2022-09-06T03:51:37.992Z,101054.81
2022-09-06T03:52:40.130Z,101060.81
2022-09-06T03:53:42.062Z,101062.59
2022-09-06T03:54:44.063Z,101057.14
2022-09-06T03:55:47.060Z,101057.17
2022-09-06T03:56:48.922Z,101055.13
2022-09-06T03:57:50.761Z,101048.31
2022-09-06T03:58:52.787Z,101051.68
2022-09-06T03:59:54.801Z,101057.59
2022-09-06T04:01:07.288Z,101058.77
2022-09-06T04:02:09.478Z,101053.23
2022-09-06T04:03:11.700Z,101052.30
2022-09-06T04:04:13.695Z,101058.18
2022-09-06T04:05:16.388Z,101057.72
2022-09-06T04:06:18.743Z,101060.08
2022-09-06T04:07:23.645Z,101071.31
2022-09-06T04:08:25.663Z,101063.18
2022-09-06T04:09:27.723Z,101071.47
2022-09-06T04:10:30.024Z,101068.88
2022-09-06T04:11:32.314Z,101076.66
2022-09-06T04:12:34.189Z,101070.38
2022-09-06T04:13:36.266Z,101077.77
2022-09-06T04:14:38.470Z,101085.59
2022-09-06T04:15:42.278Z,101074.44
2022-09-06T04:16:44.357Z,101080.80
2022-09-06T04:17:46.544Z,101077.94
2022-09-06T04:18:48.375Z,101072.55
2022-09-06T04:19:50.299Z,101075.45
2022-09-06T04:20:52.933Z,101069.72
2022-09-06T04:21:54.870Z,101075.38
2022-09-06T04:22:56.710Z,101075.21
2022-09-06T04:23:58.657Z,101073.63
2022-09-06T04:25:00.677Z,101078.20
2022-09-06T04:26:02.655Z,101073.83
2022-09-06T04:27:04.579Z,101074.40
2022-09-06T04:28:06.484Z,101077.84
2022-09-06T04:29:08.493Z,101077.03
2022-09-06T04:30:10.842Z,101081.00
2022-09-06T04:31:12.909Z,101084.13
2022-09-06T04:32:14.740Z,101075.98
2022-09-06T04:33:16.807Z,101075.73
2022-09-06T04:34:18.637Z,101073.78
2022-09-06T04:35:20.541Z,101070.79
2022-09-06T04:36:22.471Z,101080.31
2022-09-06T04:37:24.356Z,101075.82
2022-09-06T04:38:26.986Z,101071.15
2022-09-06T04:39:28.846Z,101074.55
2022-09-06T04:40:30.795Z,101067.95
2022-09-06T04:41:32.803Z,101070.24
2022-09-06T04:42:35.022Z,101070.16
2022-09-06T04:43:37.245Z,101070.29
2022-09-06T04:44:41.999Z,101066.27
2022-09-06T04:45:44.318Z,101062.73
2022-09-06T04:46:46.293Z,101071.45
2022-09-06T04:47:48.340Z,101057.95
2022-09-06T04:48:51.239Z,101066.39
2022-09-06T04:49:53.212Z,101072.28
2022-09-06T04:50:55.136Z,101071.02
2022-09-06T04:51:57.390Z,101065.22
2022-09-06T04:52:59.318Z,101069.23
2022-09-06T04:54:01.263Z,101072.05
2022-09-06T04:55:03.749Z,101065.13
2022-09-06T04:56:05.916Z,101005.01
2022-09-06T04:57:07.774Z,101072.84
2022-09-06T04:58:10.132Z,101070.44
2022-09-06T04:59:11.947Z,101070.54
2022-09-06T05:00:14.641Z,101081.41
2022-09-06T05:01:17.410Z,101079.20
2022-09-06T05:02:19.359Z,101074.45
2022-09-06T05:03:21.230Z,101070.23
2022-09-06T05:04:23.363Z,101069.61
2022-09-06T05:05:25.227Z,101071.74
2022-09-06T05:06:27.207Z,101076.39
2022-09-06T05:07:29.107Z,101077.51
2022-09-06T05:08:31.072Z,101083.57
2022-09-06T05:09:33.468Z,101087.77
2022-09-06T05:10:35.440Z,101079.94
2022-09-06T05:11:37.268Z,101077.45
2022-09-06T05:12:43.605Z,101081.83
2022-09-06T05:13:44.453Z,101081.40
2022-09-06T05:14:46.289Z,101080.67
2022-09-06T05:15:48.151Z,101077.02
2022-09-06T05:16:50.204Z,101080.45
2022-09-06T05:17:52.131Z,101073.10
2022-09-06T05:18:53.974Z,101077.98
2022-09-06T05:19:55.964Z,101073.87
2022-09-06T05:20:57.793Z,101082.50
2022-09-06T05:21:59.731Z,101076.09
2022-09-06T05:23:01.668Z,101080.14
2022-09-06T05:24:03.617Z,101074.50
2022-09-06T05:25:06.042Z,101079.31
2022-09-06T05:26:07.982Z,101078.52
2022-09-06T05:27:09.810Z,101075.41
2022-09-06T05:28:11.963Z,101074.39
2022-09-06T05:29:13.876Z,101072.66
2022-09-06T05:30:15.998Z,101071.52
2022-09-06T05:31:25.538Z,101070.92
2022-09-06T05:32:27.414Z,101070.23
2022-09-06T05:33:29.255Z,101070.80
2022-09-06T05:34:32.240Z,101077.95
2022-09-06T05:35:34.231Z,101073.39
2022-09-06T05:36:36.169Z,101067.65
2022-09-06T05:37:38.015Z,101073.84
2022-09-06T05:38:39.891Z,101075.41
2022-09-06T05:39:41.759Z,101070.80
2022-09-06T05:40:43.768Z,101071.52
2022-09-06T05:41:45.811Z,101075.24
2022-09-06T05:42:48.160Z,101060.34
2022-09-06T05:43:50.101Z,101067.98
2022-09-06T05:44:51.918Z,101071.91
2022-09-06T05:45:54.015Z,101066.06
2022-09-06T05:46:55.950Z,101070.27
2022-09-06T05:47:57.768Z,101066.50
2022-09-06T05:48:59.601Z,101065.71
2022-09-06T05:50:01.555Z,101063.62
2022-09-06T05:51:08.110Z,101071.50
2022-09-06T05:52:09.938Z,101067.06
2022-09-06T05:53:11.817Z,101074.20
2022-09-06T05:54:13.658Z,101072.98
2022-09-06T05:55:15.632Z,101074.50
2022-09-06T05:56:17.594Z,101070.50
2022-09-06T05:57:19.442Z,101078.03
2022-09-06T05:58:21.335Z,101069.77
2022-09-06T05:59:23.234Z,101071.32
2022-09-06T06:00:25.661Z,101070.47
2022-09-06T06:01:28.724Z,101068.43
2022-09-06T06:02:30.848Z,101061.52
2022-09-06T06:03:32.698Z,101063.38
2022-09-06T06:04:34.647Z,101070.29
2022-09-06T06:05:36.493Z,101069.70
2022-09-06T06:06:38.334Z,101072.60
2022-09-06T06:07:41.211Z,101070.89
2022-09-06T06:08:44.279Z,101067.79
2022-09-06T06:09:46.131Z,101074.88
2022-09-06T06:10:48.149Z,101062.55
2022-09-06T06:11:50.142Z,101059.76
2022-09-06T06:12:52.079Z,101067.91
2022-09-06T06:13:54.065Z,101069.27
2022-09-06T06:14:55.893Z,101073.34
2022-09-06T06:15:57.720Z,101072.84
2022-09-06T06:16:59.674Z,101073.57
2022-09-06T06:18:01.777Z,101074.05
2022-09-06T06:19:03.820Z,101069.59
2022-09-06T06:20:06.087Z,101075.12
2022-09-06T06:21:09.822Z,101072.25
2022-09-06T06:22:11.860Z,101071.74
2022-09-06T06:23:14.891Z,101068.35
2022-09-06T06:24:16.820Z,101065.44
2022-09-06T06:25:18.748Z,101064.09
2022-09-06T06:26:21.295Z,101064.84
2022-09-06T06:27:23.215Z,101064.72
2022-09-06T06:28:26.266Z,101076.36
2022-09-06T06:29:28.107Z,101071.57
2022-09-06T06:30:29.991Z,101073.38
2022-09-06T06:31:32.612Z,101071.02
2022-09-06T06:32:34.479Z,101067.42
2022-09-06T06:33:36.370Z,101067.36
2022-09-06T06:34:40.131Z,101074.41
2022-09-06T06:35:41.843Z,101070.02
2022-09-06T06:36:43.683Z,101072.48
2022-09-06T06:37:45.545Z,101075.38
2022-09-06T06:38:48.273Z,101074.39
2022-09-06T06:39:50.203Z,101076.53
2022-09-06T06:40:56.495Z,101073.81
2022-09-06T06:41:55.786Z,101077.92
2022-09-06T06:42:57.711Z,101078.61
2022-09-06T06:44:03.617Z,101075.48
2022-09-06T06:45:06.119Z,101075.14
2022-09-06T06:46:09.905Z,101076.49
2022-09-06T06:47:11.697Z,101085.77
2022-09-06T06:48:13.527Z,101073.81
2022-09-06T06:49:15.347Z,101072.93
2022-09-06T06:50:17.287Z,101077.25
2022-09-06T06:51:19.927Z,101080.69
2022-09-06T06:52:21.936Z,101076.97
2022-09-06T06:53:23.967Z,101073.13
2022-09-06T06:54:25.824Z,101076.53
2022-09-06T06:55:27.755Z,101081.40
2022-09-06T06:56:31.442Z,101074.41
2022-09-06T06:57:33.367Z,101076.70
2022-09-06T06:58:35.199Z,101067.16
2022-09-06T06:59:37.036Z,101073.88
2022-09-06T07:00:39.292Z,101080.57
2022-09-06T07:01:41.315Z,101065.84
2022-09-06T07:02:43.445Z,101071.97
2022-09-06T07:03:45.870Z,101078.63
2022-09-06T07:04:49.678Z,101077.48
2022-09-06T07:08:00.151Z,101072.68
2022-09-06T07:09:02.234Z,101078.13
2022-09-06T07:11:09.519Z,101073.59
2022-09-06T07:12:11.359Z,101072.95
2022-09-06T07:13:13.192Z,101072.41
2022-09-06T07:14:15.846Z,101076.10
2022-09-06T07:15:18.130Z,101077.42
2022-09-06T07:16:21.882Z,101074.83
2022-09-06T07:17:23.764Z,101071.96
2022-09-06T07:18:25.591Z,101082.13
2022-09-06T07:20:31.208Z,101075.55
2022-09-06T07:22:37.502Z,101081.41
2022-09-06T07:24:43.802Z,101075.41
2022-09-06T07:25:45.740Z,101069.77
2022-09-06T07:28:01.602Z,101073.25
2022-09-06T07:29:04.082Z,101076.22
2022-09-06T07:30:06.540Z,101072.73
2022-09-06T07:32:12.538Z,101073.38
2022-09-06T07:33:14.718Z,101071.05
2022-09-06T07:34:16.602Z,101080.13
2022-09-06T07:35:18.589Z,101064.33
2022-09-06T07:36:20.521Z,101070.64
2022-09-06T07:37:22.397Z,101071.94
2022-09-06T07:38:24.627Z,101067.36
2022-09-06T07:39:26.518Z,101074.73
2022-09-06T07:40:29.243Z,101071.05
2022-09-06T07:41:31.552Z,101073.86
2022-09-06T07:42:36.167Z,101074.70
2022-09-06T07:43:37.035Z,101072.59
2022-09-06T07:44:38.916Z,101074.23
2022-09-06T07:45:40.758Z,101077.86
2022-09-06T07:46:42.749Z,101081.37
2022-09-06T07:48:00.174Z,101073.73
2022-09-06T07:48:48.548Z,101078.25
2022-09-06T07:50:58.833Z,101069.50
2022-09-06T07:51:58.196Z,101066.69
2022-09-06T07:53:09.719Z,101066.22
2022-09-06T07:54:30.110Z,101066.53
2022-09-06T07:55:15.344Z,101074.26
2022-09-06T07:56:18.179Z,101072.86
2022-09-06T07:57:20.032Z,101069.94
2022-09-06T07:58:21.895Z,101069.31
2022-09-06T07:59:23.747Z,101074.95
2022-09-06T08:00:26.484Z,101064.09
2022-09-06T08:01:29.688Z,101066.83
2022-09-06T08:02:31.726Z,101063.09
2022-09-06T08:03:33.774Z,101063.64
2022-09-06T08:04:35.637Z,101058.46
2022-09-06T08:07:49.456Z,101054.32
2022-09-06T08:08:59.544Z,101058.53
2022-09-06T08:09:55.623Z,101057.86
2022-09-06T08:10:57.473Z,101060.23
2022-09-06T08:11:59.324Z,101047.98
2022-09-06T08:13:01.148Z,101054.37
2022-09-06T08:14:06.813Z,101057.30
2022-09-06T08:15:08.939Z,101047.00
2022-09-06T08:16:11.770Z,101049.75
2022-09-06T08:17:13.596Z,101045.77
2022-09-06T08:18:15.474Z,101044.89
2022-09-06T08:19:17.312Z,101042.23
2022-09-06T08:20:19.242Z,101046.45
2022-09-06T08:21:22.201Z,101047.49
2022-09-06T08:22:24.145Z,101049.22
2022-09-06T08:23:26.053Z,101046.66
2022-09-06T08:24:27.919Z,101045.98
2022-09-06T08:25:29.788Z,101040.56
2022-09-06T08:26:33.034Z,101037.48
2022-09-06T08:27:34.867Z,101038.36
2022-09-06T08:28:37.103Z,101041.75
2022-09-06T08:29:40.313Z,101039.16
2022-09-06T08:30:42.438Z,101043.55
2022-09-06T08:31:44.834Z,101044.55
2022-09-06T08:32:46.706Z,101033.16
2022-09-06T08:33:48.671Z,101030.67
2022-09-06T08:34:50.673Z,101044.25
2022-09-06T08:35:56.008Z,101036.28
2022-09-06T08:36:57.982Z,101029.89
2022-09-06T08:38:00.041Z,101038.14
2022-09-06T08:39:03.618Z,101032.38
2022-09-06T08:40:06.070Z,101039.30
2022-09-06T08:41:09.854Z,101039.46
2022-09-06T08:42:11.921Z,101036.31
2022-09-06T08:43:15.787Z,101040.69
2022-09-06T08:45:32.319Z,101030.65
2022-09-06T08:46:38.447Z,101030.15
2022-09-06T08:47:40.434Z,101027.04
2022-09-06T08:48:42.670Z,101040.08
2022-09-06T08:49:46.475Z,101038.66
2022-09-06T08:50:50.283Z,101033.72
2022-09-06T08:51:57.032Z,101035.81
2022-09-06T08:53:16.757Z,101030.61
2022-09-06T08:54:09.408Z,101025.72
2022-09-06T08:55:14.907Z,101026.03
2022-09-06T08:56:21.662Z,101022.02
2022-09-06T08:57:42.299Z,101016.30
2022-09-06T08:58:49.195Z,101013.13
2022-09-06T08:59:53.065Z,101017.28
2022-09-06T09:00:56.884Z,101018.88
2022-09-06T09:02:00.707Z,101010.47
2022-09-06T09:03:15.905Z,101015.17
2022-09-06T09:04:16.432Z,101015.03
2022-09-06T09:05:20.177Z,101013.77
2022-09-06T09:06:23.111Z,101016.94
2022-09-06T09:07:29.976Z,101019.38
2022-09-06T09:08:39.527Z,101015.38
2022-09-06T09:09:41.339Z,101010.55
2022-09-06T09:10:47.573Z,101006.28
2022-09-06T09:11:50.487Z,101015.97
2022-09-06T09:12:52.564Z,101013.02
2022-09-06T09:13:59.198Z,101016.53
2022-09-06T09:15:03.005Z,101012.74
2022-09-06T09:16:05.612Z,101021.58
2022-09-06T09:17:18.117Z,101015.97
2022-09-06T09:18:24.743Z,101012.97
2022-09-06T09:19:26.686Z,101014.14
2022-09-06T09:20:28.708Z,101008.98
2022-09-06T09:21:32.469Z,101015.16
2022-09-06T09:22:34.795Z,101015.38
2022-09-06T09:23:36.645Z,101021.49
2022-09-06T09:24:38.499Z,101015.16
2022-09-06T09:25:40.944Z,101013.43
2022-09-06T09:27:01.375Z,101003.99
2022-09-06T09:28:03.515Z,101010.93
2022-09-06T09:29:12.752Z,101005.44
2022-09-06T09:31:20.408Z,101013.88
2022-09-06T09:32:39.321Z,101009.81
2022-09-06T09:33:41.259Z,101006.91
2022-09-06T09:34:43.106Z,101016.62
2022-09-06T09:35:45.207Z,101004.73
2022-09-06T09:38:07.731Z,101004.89
2022-09-06T09:39:09.945Z,101002.86
2022-09-06T09:40:16.629Z,101005.95
2022-09-06T09:41:29.445Z,101007.98
2022-09-06T09:42:33.215Z,101007.14
2022-09-06T09:43:36.795Z,101001.77
2022-09-06T09:44:42.459Z,101015.72
2022-09-06T09:45:45.173Z,101007.48
2022-09-06T09:46:47.104Z,101010.00
2022-09-06T09:47:48.942Z,101009.97
2022-09-06T09:49:04.933Z,101007.42
2022-09-06T09:50:08.775Z,101012.58
2022-09-06T09:51:27.432Z,101014.64
2022-09-06T09:52:28.999Z,101011.70
2022-09-06T09:53:30.828Z,101004.59
2022-09-06T09:54:34.567Z,101010.35
2022-09-06T09:55:36.904Z,101010.05
2022-09-06T09:56:51.888Z,101015.97
2022-09-06T09:57:54.015Z,101017.57
2022-09-06T09:58:57.176Z,101014.52
2022-09-06T09:59:59.414Z,101008.88
2022-09-06T10:01:03.153Z,101013.48
2022-09-06T10:02:22.403Z,101004.04
2022-09-06T10:03:26.321Z,101007.89
2022-09-06T10:04:45.833Z,101006.13
2022-09-06T10:05:33.891Z,101016.27
2022-09-06T10:07:43.871Z,101000.41
2022-09-06T10:08:45.939Z,101007.29
2022-09-06T10:10:05.041Z,101005.56
2022-09-06T10:11:08.811Z,101005.85
2022-09-06T10:12:16.439Z,101003.53
2022-09-06T10:13:25.543Z,101004.38
2022-09-06T10:14:31.849Z,101005.07
2022-09-06T10:15:35.612Z,101004.05
2022-09-06T10:16:41.609Z,101004.81
2022-09-06T10:17:50.437Z,101010.31
2022-09-06T10:18:52.368Z,101004.38
2022-09-06T10:19:54.239Z,100999.58
2022-09-06T10:21:01.184Z,101004.90
2022-09-06T10:22:05.009Z,101007.65
2022-09-06T10:23:11.908Z,100997.16
2022-09-06T10:25:44.053Z,100997.08
2022-09-06T10:26:51.319Z,100995.08
2022-09-06T10:28:11.908Z,100994.84
2022-09-06T10:29:08.014Z,100997.05
2022-09-06T10:30:10.189Z,100993.32
2022-09-06T10:31:14.063Z,100990.42
2022-09-06T10:32:31.057Z,100991.54
2022-09-06T10:33:47.145Z,100991.89
2022-09-06T10:35:09.171Z,100989.69
2022-09-06T10:36:12.913Z,100991.95
2022-09-06T10:37:31.774Z,100990.63
2022-09-06T10:38:44.528Z,100991.58
2022-09-06T10:39:57.321Z,100987.90
2022-09-06T10:41:13.018Z,100990.20
2022-09-06T10:42:19.525Z,100988.99
2022-09-06T10:43:23.448Z,100991.33
2022-09-06T10:44:27.153Z,100990.91
2022-09-06T10:45:31.024Z,100986.86
2022-09-06T10:46:34.529Z,100998.05
2022-09-06T10:47:56.567Z,100994.25
2022-09-06T10:48:58.396Z,100997.17
2022-09-06T10:50:02.151Z,100993.23
2022-09-06T10:51:05.855Z,100991.16
2022-09-06T10:52:09.665Z,100998.05
2022-09-06T10:53:19.179Z,100994.59
2022-09-06T10:54:21.783Z,100993.41
2022-09-06T10:55:23.830Z,100984.44
2022-09-06T10:56:30.466Z,100997.45
2022-09-06T10:59:52.272Z,101000.67
2022-09-06T11:00:54.591Z,101000.84
2022-09-06T11:02:07.772Z,101003.45
2022-09-06T11:04:17.279Z,100993.05
2022-09-06T11:06:28.166Z,101006.44
2022-09-06T11:07:31.301Z,100999.64
2022-09-06T11:08:47.719Z,100989.08
2022-09-06T11:09:52.044Z,100997.79
2022-09-06T11:10:54.380Z,100996.56
2022-09-06T11:12:16.195Z,100998.38
2022-09-06T11:13:19.143Z,100985.80
2022-09-06T11:14:22.956Z,100993.47
2022-09-06T11:15:26.670Z,100996.20
2022-09-06T11:16:30.530Z,100993.03
2022-09-06T11:17:51.341Z,100993.53
2022-09-06T11:19:04.305Z,101001.11
2022-09-06T11:20:20.466Z,100988.91
2022-09-06T11:21:30.420Z,100993.05
2022-09-06T11:22:37.070Z,100991.16
2022-09-06T11:23:49.774Z,100996.66
2022-09-06T11:25:10.564Z,100997.25
2022-09-06T11:26:23.497Z,100989.80
2022-09-06T11:27:27.218Z,100993.53
2022-09-06T11:28:37.198Z,100994.88
2022-09-06T11:29:42.568Z,100984.02
2022-09-06T11:30:46.326Z,100997.73
2022-09-06T11:33:07.966Z,100995.59
2022-09-06T11:34:11.588Z,100994.91
2022-09-06T11:35:27.446Z,100992.69
2022-09-06T11:36:34.293Z,100996.20
2022-09-06T11:37:38.010Z,100986.50
2022-09-06T11:38:41.045Z,100996.59
2022-09-06T11:40:48.540Z,100989.08
2022-09-06T11:41:50.882Z,100995.05
2022-09-06T11:42:54.763Z,100990.42
2022-09-06T11:43:56.794Z,100996.51
2022-09-06T11:45:00.527Z,100993.19
2022-09-06T11:46:02.495Z,100998.51
2022-09-06T11:47:04.607Z,100994.28
2022-09-06T11:48:26.767Z,100994.89
2022-09-06T11:49:34.317Z,100989.16
2022-09-06T11:50:41.041Z,100984.27
2022-09-06T11:51:43.991Z,100983.20
2022-09-06T11:52:56.879Z,100992.15
2022-09-06T11:54:00.691Z,100987.42
2022-09-06T11:55:02.756Z,100991.02
2022-09-06T11:56:06.600Z,100993.19
2022-09-06T11:57:10.308Z,100988.03
2022-09-06T11:58:20.121Z,100991.02
2022-09-06T11:59:29.698Z,100989.37
2022-09-06T12:00:31.664Z,100987.67
2022-09-06T12:01:35.175Z,100985.86
2022-09-06T12:02:38.292Z,100987.42
2022-09-06T12:04:10.286Z,100979.20
2022-09-06T12:05:02.569Z,100984.16
2022-09-06T12:06:18.048Z,100983.64
2022-09-06T12:07:19.996Z,100976.67
2022-09-06T12:08:23.954Z,100979.09
2022-09-06T12:09:27.252Z,100982.69
2022-09-06T12:10:31.070Z,100979.28
2022-09-06T12:11:34.770Z,100979.53
2022-09-06T12:12:47.550Z,100974.72
2022-09-06T12:14:08.154Z,100980.81
2022-09-06T12:15:29.850Z,100971.05
2022-09-06T12:16:50.395Z,100975.48
2022-09-06T12:17:54.190Z,100975.32
2022-09-06T12:18:57.133Z,100955.66
2022-09-06T12:20:00.698Z,100957.32
2022-09-06T12:21:02.767Z,100964.97
2022-09-06T12:22:06.478Z,100961.80
2022-09-06T12:23:08.344Z,100958.38
2022-09-06T12:24:24.432Z,100966.27
2022-09-06T12:25:37.025Z,100963.84
2022-09-06T12:26:46.621Z,100964.34
2022-09-06T12:27:53.340Z,100968.82
2022-09-06T12:28:55.262Z,100961.50
2022-09-06T12:30:01.961Z,100953.86
2022-09-06T12:31:05.639Z,100963.32
2022-09-06T12:32:08.335Z,100950.44
2022-09-06T12:33:12.141Z,100957.55
2022-09-06T12:34:15.861Z,100959.02
2022-09-06T12:36:32.695Z,100953.69
2022-09-06T12:37:35.939Z,100957.61
2022-09-06T12:38:39.770Z,100957.48
2022-09-06T12:39:43.419Z,100951.04
2022-09-06T12:40:47.857Z,100930.12